Aviation Digital Data Service (ADDS)

Output produced by METARs form (0516 UTC 19 February 2019)
found at http://www.aviationweather.gov/metar/data/
 
METAR text: KIND 190454Z 01003KT 10SM FEW015 SCT035 M03/M06 A3053 RMK AO2 SNE09 SLP347 P0000 T10331056 410061033
Conditions at: KIND (INDIANAPOLIS , IN, US) observed 0454 UTC 19 February 2019
Temperature: -3.3°C (26°F)
Dewpoint: -5.6°C (22°F) [RH = 84%]
Pressure (altimeter): 30.53 inches Hg (1033.9 mb)
[Sea-level pressure: 1034.7 mb]
Winds: from the N (10 degrees) at 3 MPH (3 knots; 1.5 m/s)
Visibility: 10 or more miles (16+ km)
Ceiling: at least 12,000 feet AGL
Clouds: few clouds at 1500 feet AGL
scattered clouds at 3500 feet AGL
Weather: no significant weather observed at this time

METAR text: KIND 190415Z 36005KT 10SM FEW020 OVC031 M02/M04 A3052 RMK AO2 SNE09 P0000 T10221044
Conditions at: KIND (INDIANAPOLIS , IN, US) observed 0415 UTC 19 February 2019
Temperature: -2.2°C (28°F)
Dewpoint: -4.4°C (24°F) [RH = 85%]
Pressure (altimeter): 30.52 inches Hg (1033.6 mb)
Winds: from the N (360 degrees) at 6 MPH (5 knots; 2.6 m/s)
Visibility: 10 or more miles (16+ km)
Ceiling: 3100 feet AGL
Clouds: few clouds at 2000 feet AGL
overcast cloud deck at 3100 feet AGL
Weather: no significant weather observed at this time

METAR text: KIND 190354Z 01005KT 9SM -SN BKN020 OVC034 M02/M04 A3052 RMK AO2 SLP343 P0000 T10221044
Conditions at: KIND (INDIANAPOLIS , IN, US) observed 0354 UTC 19 February 2019
Temperature: -2.2°C (28°F)
Dewpoint: -4.4°C (24°F) [RH = 85%]
Pressure (altimeter): 30.52 inches Hg (1033.6 mb)
[Sea-level pressure: 1034.3 mb]
Winds: from the N (10 degrees) at 6 MPH (5 knots; 2.6 m/s)
Visibility: 9 miles (14 km)
Ceiling: 2000 feet AGL
Clouds: broken clouds at 2000 feet AGL
overcast cloud deck at 3400 feet AGL
Weather: -SN  (light snow)

METAR text: KIND 190254Z 33003KT 4SM -SN BR BKN024 OVC034 M02/M04 A3052 RMK AO2 SLP346 P0000 60000 T10221044 51012
Conditions at: KIND (INDIANAPOLIS , IN, US) observed 0254 UTC 19 February 2019
Temperature: -2.2°C (28°F)
Dewpoint: -4.4°C (24°F) [RH = 85%]
Pressure (altimeter): 30.52 inches Hg (1033.6 mb)
[Sea-level pressure: 1034.6 mb]
Winds: from the NNW (330 degrees) at 3 MPH (3 knots; 1.5 m/s)
Visibility: 4 miles ( 6 km)
Ceiling: 2400 feet AGL
Clouds: broken clouds at 2400 feet AGL
overcast cloud deck at 3400 feet AGL
Weather: -SN BR  (light snow, mist)

METAR text: KIND 190251Z 33004KT 3SM -SN BR BKN024 OVC034 M02/M04 A3052 RMK AO2 TWR VIS 5 P0000
Conditions at: KIND (INDIANAPOLIS , IN, US) observed 0251 UTC 19 February 2019
Temperature: -2.0°C (28°F)
Dewpoint: -4.0°C (25°F) [RH = 86%]
Pressure (altimeter): 30.52 inches Hg (1033.6 mb)
Winds: from the NNW (330 degrees) at 5 MPH (4 knots; 2.1 m/s)
Visibility: 3 miles ( 5 km)
Ceiling: 2400 feet AGL
Clouds: broken clouds at 2400 feet AGL
overcast cloud deck at 3400 feet AGL
Weather: -SN BR  (light snow, mist)

METAR text: KIND 190154Z 00000KT 8SM -SN OVC038 M02/M04 A3050 RMK AO2 SLP340 P0000 T10221044
Conditions at: KIND (INDIANAPOLIS , IN, US) observed 0154 UTC 19 February 2019
Temperature: -2.2°C (28°F)
Dewpoint: -4.4°C (24°F) [RH = 85%]
Pressure (altimeter): 30.50 inches Hg (1032.9 mb)
[Sea-level pressure: 1034.0 mb]
Winds: calm
Visibility: 8 miles (13 km)
Ceiling: 3800 feet AGL
Clouds: overcast cloud deck at 3800 feet AGL
Weather: -SN  (light snow)

METAR text: KIND 190054Z 25003KT 5SM -SN BR FEW023 OVC043 M02/M04 A3049 RMK AO2 SLP334 P0000 T10221039
Conditions at: KIND (INDIANAPOLIS , IN, US) observed 0054 UTC 19 February 2019
Temperature: -2.2°C (28°F)
Dewpoint: -3.9°C (25°F) [RH = 88%]
Pressure (altimeter): 30.49 inches Hg (1032.6 mb)
[Sea-level pressure: 1033.4 mb]
Winds: from the WSW (250 degrees) at 3 MPH (3 knots; 1.5 m/s)
Visibility: 5 miles ( 8 km)
Ceiling: 4300 feet AGL
Clouds: few clouds at 2300 feet AGL
overcast cloud deck at 4300 feet AGL
Weather: -SN BR  (light snow, mist)

METAR text: KIND 182354Z 27003KT 5SM -SN BR SCT023 OVC040 M03/M04 A3046 RMK AO2 SLP324 P0000 60001 T10281039 11006 21028 51012
Conditions at: KIND (INDIANAPOLIS , IN, US) observed 2354 UTC 18 February 2019
Temperature: -2.8°C (27°F)
Dewpoint: -3.9°C (25°F) [RH = 92%]
Pressure (altimeter): 30.46 inches Hg (1031.6 mb)
[Sea-level pressure: 1032.4 mb]
Winds: from the W (270 degrees) at 3 MPH (3 knots; 1.5 m/s)
Visibility: 5 miles ( 8 km)
Ceiling: 4000 feet AGL
Clouds: scattered clouds at 2300 feet AGL
overcast cloud deck at 4000 feet AGL
Weather: -SN BR  (light snow, mist)

METAR text: KIND 182351Z 27003KT 5SM -SN BR SCT023 OVC040 M03/M04 A3046 RMK AO2 P0000
Conditions at: KIND (INDIANAPOLIS , IN, US) observed 2351 UTC 18 February 2019
Temperature: -3.0°C (27°F)
Dewpoint: -4.0°C (25°F) [RH = 93%]
Pressure (altimeter): 30.46 inches Hg (1031.6 mb)
Winds: from the W (270 degrees) at 3 MPH (3 knots; 1.5 m/s)
Visibility: 5 miles ( 8 km)
Ceiling: 4000 feet AGL
Clouds: scattered clouds at 2300 feet AGL
overcast cloud deck at 4000 feet AGL
Weather: -SN BR  (light snow, mist)

METAR text: KIND 182332Z 29003KT 2SM -SN BR SCT023 OVC048 M03/M04 A3045 RMK AO2 SFC VIS 2 1/2 P0000 T10281039
Conditions at: KIND (INDIANAPOLIS , IN, US) observed 2332 UTC 18 February 2019
Temperature: -2.8°C (27°F)
Dewpoint: -3.9°C (25°F) [RH = 92%]
Pressure (altimeter): 30.45 inches Hg (1031.2 mb)
Winds: from the WNW (290 degrees) at 3 MPH (3 knots; 1.5 m/s)
Visibility: 2.00 miles (3.22 km)
Ceiling: 4800 feet AGL
Clouds: scattered clouds at 2300 feet AGL
overcast cloud deck at 4800 feet AGL
Weather: -SN BR  (light snow, mist)

METAR text: KIND 182254Z 32008KT 1SM R05L/P6000FT -SN BKN026 OVC048 M02/M05 A3042 RMK AO2 TWR VIS 2 SLP312 P0000 T10221050
Conditions at: KIND (INDIANAPOLIS , IN, US) observed 2254 UTC 18 February 2019
Temperature: -2.2°C (28°F)
Dewpoint: -5.0°C (23°F) [RH = 81%]
Pressure (altimeter): 30.42 inches Hg (1030.2 mb)
[Sea-level pressure: 1031.2 mb]
Winds: from the NW (320 degrees) at 9 MPH (8 knots; 4.1 m/s)
Visibility: 1.00 miles (1.61 km)
Ceiling: 2600 feet AGL
Clouds: broken clouds at 2600 feet AGL
overcast cloud deck at 4800 feet AGL
Weather: -SN  (light snow)

METAR text: KIND 182248Z 33008KT 1SM R05L/P6000FT -SN BKN026 OVC048 M02/M05 A3042 RMK AO2 TWR VIS 2 P0000
Conditions at: KIND (INDIANAPOLIS , IN, US) observed 2248 UTC 18 February 2019
Temperature: -2.0°C (28°F)
Dewpoint: -5.0°C (23°F) [RH = 80%]
Pressure (altimeter): 30.42 inches Hg (1030.2 mb)
Winds: from the NNW (330 degrees) at 9 MPH (8 knots; 4.1 m/s)
Visibility: 1.00 miles (1.61 km)
Ceiling: 2600 feet AGL
Clouds: broken clouds at 2600 feet AGL
overcast cloud deck at 4800 feet AGL
Weather: -SN  (light snow)

METAR text: KIND 182223Z 29007KT 9SM -SN BKN026 OVC048 M01/M06 A3041 RMK AO2 P0000 T10111061
Conditions at: KIND (INDIANAPOLIS , IN, US) observed 2223 UTC 18 February 2019
Temperature: -1.1°C (30°F)
Dewpoint: -6.1°C (21°F) [RH = 69%]
Pressure (altimeter): 30.41 inches Hg (1029.9 mb)
Winds: from the WNW (290 degrees) at 8 MPH (7 knots; 3.6 m/s)
Visibility: 9 miles (14 km)
Ceiling: 2600 feet AGL
Clouds: broken clouds at 2600 feet AGL
overcast cloud deck at 4800 feet AGL
Weather: -SN  (light snow)

METAR text: KIND 182154Z 33008KT 9SM -SN BKN030 OVC048 M01/M06 A3040 RMK AO2 SLP302 P0000 T10111061
Conditions at: KIND (INDIANAPOLIS , IN, US) observed 2154 UTC 18 February 2019
Temperature: -1.1°C (30°F)
Dewpoint: -6.1°C (21°F) [RH = 69%]
Pressure (altimeter): 30.40 inches Hg (1029.5 mb)
[Sea-level pressure: 1030.2 mb]
Winds: from the NNW (330 degrees) at 9 MPH (8 knots; 4.1 m/s)
Visibility: 9 miles (14 km)
Ceiling: 3000 feet AGL
Clouds: broken clouds at 3000 feet AGL
overcast cloud deck at 4800 feet AGL
Weather: -SN  (light snow)

METAR text: KIND 182054Z 34010KT 9SM -SN FEW023 OVC037 M01/M07 A3037 RMK AO2 SNB46 SLP294 P0000 60001 T10061072 53022
Conditions at: KIND (INDIANAPOLIS , IN, US) observed 2054 UTC 18 February 2019
Temperature: -0.6°C (31°F)
Dewpoint: -7.2°C (19°F) [RH = 61%]
Pressure (altimeter): 30.37 inches Hg (1028.5 mb)
[Sea-level pressure: 1029.4 mb]
Winds: from the NNW (340 degrees) at 12 MPH (10 knots; 5.1 m/s)
Visibility: 9 miles (14 km)
Ceiling: 3700 feet AGL
Clouds: few clouds at 2300 feet AGL
overcast cloud deck at 3700 feet AGL
Weather: -SN  (light snow)

METAR text: KIND 181954Z 34009KT 10SM FEW023 OVC037 M01/M07 A3034 RMK AO2 SLP282 T10061072
Conditions at: KIND (INDIANAPOLIS , IN, US) observed 1954 UTC 18 February 2019
Temperature: -0.6°C (31°F)
Dewpoint: -7.2°C (19°F) [RH = 61%]
Pressure (altimeter): 30.34 inches Hg (1027.5 mb)
[Sea-level pressure: 1028.2 mb]
Winds: from the NNW (340 degrees) at 10 MPH (9 knots; 4.6 m/s)
Visibility: 10 or more miles (16+ km)
Ceiling: 3700 feet AGL
Clouds: few clouds at 2300 feet AGL
overcast cloud deck at 3700 feet AGL
Weather: no significant weather observed at this time

METAR text: KIND 181928Z COR 33009KT 10SM OVC033 M01/M07 A3033 RMK AO2 T10111072
Conditions at: KIND (INDIANAPOLIS , IN, US) observed 1928 UTC 18 February 2019
Temperature: -1.1°C (30°F)
Dewpoint: -7.2°C (19°F) [RH = 63%]
Pressure (altimeter): 30.33 inches Hg (1027.2 mb)
Winds: from the NNW (330 degrees) at 10 MPH (9 knots; 4.6 m/s)
Visibility: 10 or more miles (16+ km)
Ceiling: 3300 feet AGL
Clouds: overcast cloud deck at 3300 feet AGL
Weather: no significant weather observed at this time

METAR text: KIND 181854Z 32011KT 8SM BKN022 OVC027 M01/M06 A3032 RMK AO2 SNE51 SLP277 P0000 T10111061
Conditions at: KIND (INDIANAPOLIS , IN, US) observed 1854 UTC 18 February 2019
Temperature: -1.1°C (30°F)
Dewpoint: -6.1°C (21°F) [RH = 69%]
Pressure (altimeter): 30.32 inches Hg (1026.8 mb)
[Sea-level pressure: 1027.7 mb]
Winds: from the NW (320 degrees) at 13 MPH (11 knots; 5.7 m/s)
Visibility: 8 miles (13 km)
Ceiling: 2200 feet AGL
Clouds: broken clouds at 2200 feet AGL
overcast cloud deck at 2700 feet AGL
Weather: no significant weather observed at this time

METAR text: KIND 181809Z 31013KT 4SM -SN BKN018 OVC027 M02/M05 A3031 RMK AO2 P0000 T10221050
Conditions at: KIND (INDIANAPOLIS , IN, US) observed 1809 UTC 18 February 2019
Temperature: -2.2°C (28°F)
Dewpoint: -5.0°C (23°F) [RH = 81%]
Pressure (altimeter): 30.31 inches Hg (1026.5 mb)
Winds: from the NW (310 degrees) at 15 MPH (13 knots; 6.7 m/s)
Visibility: 4 miles ( 6 km)
Ceiling: 1800 feet AGL
Clouds: broken clouds at 1800 feet AGL
overcast cloud deck at 2700 feet AGL
Weather: -SN  (light snow)

METAR text: KIND 181808Z 31013KT 1 3/4SM -SN BKN016 BKN025 OVC032 M02/M05 A3031 RMK AO2 VIS 3/4V5 P0000 T10171050
Conditions at: KIND (INDIANAPOLIS , IN, US) observed 1808 UTC 18 February 2019
Temperature: -1.7°C (29°F)
Dewpoint: -5.0°C (23°F) [RH = 78%]
Pressure (altimeter): 30.31 inches Hg (1026.5 mb)
Winds: from the NW (310 degrees) at 15 MPH (13 knots; 6.7 m/s)
Visibility: 1.75 miles (2.82 km)
Ceiling: 1600 feet AGL
Clouds: broken clouds at 1600 feet AGL
broken clouds at 2500 feet AGL
overcast cloud deck at 3200 feet AGL
Weather: -SN  (light snow)

METAR text: KIND 181754Z 31013KT 9SM -SN BKN016 BKN025 OVC032 M01/M05 A3031 RMK AO2 SLP271 P0000 60000 T10111050 11011 21022 51035
Conditions at: KIND (INDIANAPOLIS , IN, US) observed 1754 UTC 18 February 2019
Temperature: -1.1°C (30°F)
Dewpoint: -5.0°C (23°F) [RH = 75%]
Pressure (altimeter): 30.31 inches Hg (1026.5 mb)
[Sea-level pressure: 1027.1 mb]
Winds: from the NW (310 degrees) at 15 MPH (13 knots; 6.7 m/s)
Visibility: 9 miles (14 km)
Ceiling: 1600 feet AGL
Clouds: broken clouds at 1600 feet AGL
broken clouds at 2500 feet AGL
overcast cloud deck at 3200 feet AGL
Weather: -SN  (light snow)

METAR text: KIND 181654Z 30012KT 7SM -SN BKN017 OVC021 M02/M05 A3028 RMK AO2 SLP261 P0000 T10171050
Conditions at: KIND (INDIANAPOLIS , IN, US) observed 1654 UTC 18 February 2019
Temperature: -1.7°C (29°F)
Dewpoint: -5.0°C (23°F) [RH = 78%]
Pressure (altimeter): 30.28 inches Hg (1025.5 mb)
[Sea-level pressure: 1026.1 mb]
Winds: from the WNW (300 degrees) at 14 MPH (12 knots; 6.2 m/s)
Visibility: 7 miles (11 km)
Ceiling: 1700 feet AGL
Clouds: broken clouds at 1700 feet AGL
overcast cloud deck at 2100 feet AGL
Weather: -SN  (light snow)

METAR text: KIND 181554Z 28015KT 4SM -SN BKN017 OVC043 M01/M04 A3024 RMK AO2 SLP247 P0000 T10111044
Conditions at: KIND (INDIANAPOLIS , IN, US) observed 1554 UTC 18 February 2019
Temperature: -1.1°C (30°F)
Dewpoint: -4.4°C (24°F) [RH = 78%]
Pressure (altimeter): 30.24 inches Hg (1024.1 mb)
[Sea-level pressure: 1024.7 mb]
Winds: from the W (280 degrees) at 17 MPH (15 knots; 7.7 m/s)
Visibility: 4 miles ( 6 km)
Ceiling: 1700 feet AGL
Clouds: broken clouds at 1700 feet AGL
overcast cloud deck at 4300 feet AGL
Weather: -SN  (light snow)

METAR text: KIND 181519Z 27013KT 8SM -SN FEW014 OVC017 M02/M04 A3021 RMK AO2 P0000 T10171044
Conditions at: KIND (INDIANAPOLIS , IN, US) observed 1519 UTC 18 February 2019
Temperature: -1.7°C (29°F)
Dewpoint: -4.4°C (24°F) [RH = 82%]
Pressure (altimeter): 30.21 inches Hg (1023.1 mb)
Winds: from the W (270 degrees) at 15 MPH (13 knots; 6.7 m/s)
Visibility: 8 miles (13 km)
Ceiling: 1700 feet AGL
Clouds: few clouds at 1400 feet AGL
overcast cloud deck at 1700 feet AGL
Weather: -SN  (light snow)

METAR text: KIND 181454Z 27013KT 5SM -SN BR BKN014 OVC017 M02/M04 A3020 RMK AO2 SLP235 P0000 60000 T10221044 51038
Conditions at: KIND (INDIANAPOLIS , IN, US) observed 1454 UTC 18 February 2019
Temperature: -2.2°C (28°F)
Dewpoint: -4.4°C (24°F) [RH = 85%]
Pressure (altimeter): 30.20 inches Hg (1022.8 mb)
[Sea-level pressure: 1023.5 mb]
Winds: from the W (270 degrees) at 15 MPH (13 knots; 6.7 m/s)
Visibility: 5 miles ( 8 km)
Ceiling: 1400 feet AGL
Clouds: broken clouds at 1400 feet AGL
overcast cloud deck at 1700 feet AGL
Weather: -SN BR  (light snow, mist)

METAR text: KIND 181407Z 27013KT 6SM -SN OVC013 M02/M05 A3017 RMK AO2 P0000 T10221050
Conditions at: KIND (INDIANAPOLIS , IN, US) observed 1407 UTC 18 February 2019
Temperature: -2.2°C (28°F)
Dewpoint: -5.0°C (23°F) [RH = 81%]
Pressure (altimeter): 30.17 inches Hg (1021.8 mb)
Winds: from the W (270 degrees) at 15 MPH (13 knots; 6.7 m/s)
Visibility: 6 miles (10 km)
Ceiling: 1300 feet AGL
Clouds: overcast cloud deck at 1300 feet AGL
Weather: -SN  (light snow)

METAR text: KIND 181354Z 27013KT 9SM -SN OVC015 M02/M05 A3017 RMK AO2 SNB54 SLP224 P0000 T10221050
Conditions at: KIND (INDIANAPOLIS , IN, US) observed 1354 UTC 18 February 2019
Temperature: -2.2°C (28°F)
Dewpoint: -5.0°C (23°F) [RH = 81%]
Pressure (altimeter): 30.17 inches Hg (1021.8 mb)
[Sea-level pressure: 1022.4 mb]
Winds: from the W (270 degrees) at 15 MPH (13 knots; 6.7 m/s)
Visibility: 9 miles (14 km)
Ceiling: 1500 feet AGL
Clouds: overcast cloud deck at 1500 feet AGL
Weather: -SN  (light snow)

METAR text: KIND 181254Z 27013KT 10SM BKN020 OVC027 M02/M06 A3012 RMK AO2 SLP208 T10221056
Conditions at: KIND (INDIANAPOLIS , IN, US) observed 1254 UTC 18 February 2019
Temperature: -2.2°C (28°F)
Dewpoint: -5.6°C (22°F) [RH = 77%]
Pressure (altimeter): 30.12 inches Hg (1020.1 mb)
[Sea-level pressure: 1020.8 mb]
Winds: from the W (270 degrees) at 15 MPH (13 knots; 6.7 m/s)
Visibility: 10 or more miles (16+ km)
Ceiling: 2000 feet AGL
Clouds: broken clouds at 2000 feet AGL
overcast cloud deck at 2700 feet AGL
Weather: no significant weather observed at this time

METAR text: KIND 181154Z 27010KT 9SM BKN020 OVC030 M02/M05 A3009 RMK AO2 SNB27E50 SLP196 P0000 60000 70002 T10221050 11006 21022 53028
Conditions at: KIND (INDIANAPOLIS , IN, US) observed 1154 UTC 18 February 2019
Temperature: -2.2°C (28°F)
Dewpoint: -5.0°C (23°F) [RH = 81%]
Pressure (altimeter): 30.09 inches Hg (1019.0 mb)
[Sea-level pressure: 1019.6 mb]
Winds: from the W (270 degrees) at 12 MPH (10 knots; 5.1 m/s)
Visibility: 9 miles (14 km)
Ceiling: 2000 feet AGL
Clouds: broken clouds at 2000 feet AGL
overcast cloud deck at 3000 feet AGL
Weather: no significant weather observed at this time

METAR text: KIND 181054Z 28016KT 10SM BKN022 OVC029 M02/M05 A3005 RMK AO2 SLP185 T10171050
Conditions at: KIND (INDIANAPOLIS , IN, US) observed 1054 UTC 18 February 2019
Temperature: -1.7°C (29°F)
Dewpoint: -5.0°C (23°F) [RH = 78%]
Pressure (altimeter): 30.05 inches Hg (1017.7 mb)
[Sea-level pressure: 1018.5 mb]
Winds: from the W (280 degrees) at 18 MPH (16 knots; 8.2 m/s)
Visibility: 10 or more miles (16+ km)
Ceiling: 2200 feet AGL
Clouds: broken clouds at 2200 feet AGL
overcast cloud deck at 2900 feet AGL
Weather: no significant weather observed at this time

METAR text: KIND 180954Z 27011KT 10SM OVC021 M02/M04 A3002 RMK AO2 SLP175 T10171044
Conditions at: KIND (INDIANAPOLIS , IN, US) observed 0954 UTC 18 February 2019
Temperature: -1.7°C (29°F)
Dewpoint: -4.4°C (24°F) [RH = 82%]
Pressure (altimeter): 30.02 inches Hg (1016.7 mb)
[Sea-level pressure: 1017.5 mb]
Winds: from the W (270 degrees) at 13 MPH (11 knots; 5.7 m/s)
Visibility: 10 or more miles (16+ km)
Ceiling: 2100 feet AGL
Clouds: overcast cloud deck at 2100 feet AGL
Weather: no significant weather observed at this time

METAR text: KIND 180854Z 27016G22KT 10SM BKN016 OVC024 M02/M04 A3000 RMK AO2 SLP168 T10171044 51024
Conditions at: KIND (INDIANAPOLIS , IN, US) observed 0854 UTC 18 February 2019
Temperature: -1.7°C (29°F)
Dewpoint: -4.4°C (24°F) [RH = 82%]
Pressure (altimeter): 30.00 inches Hg (1016.0 mb)
[Sea-level pressure: 1016.8 mb]
Winds: from the W (270 degrees) at 18 MPH (16 knots; 8.2 m/s)
gusting to 25 MPH (22 knots; 11.3 m/s)
Visibility: 10 or more miles (16+ km)
Ceiling: 1600 feet AGL
Clouds: broken clouds at 1600 feet AGL
overcast cloud deck at 2400 feet AGL
Weather: no significant weather observed at this time

METAR text: KIND 180754Z 27014G18KT 10SM OVC016 M01/M03 A2999 RMK AO2 SLP162 T10111033
Conditions at: KIND (INDIANAPOLIS , IN, US) observed 0754 UTC 18 February 2019
Temperature: -1.1°C (30°F)
Dewpoint: -3.3°C (26°F) [RH = 85%]
Pressure (altimeter): 29.99 inches Hg (1015.7 mb)
[Sea-level pressure: 1016.2 mb]
Winds: from the W (270 degrees) at 16 MPH (14 knots; 7.2 m/s)
gusting to 21 MPH (18 knots; 9.3 m/s)
Visibility: 10 or more miles (16+ km)
Ceiling: 1600 feet AGL
Clouds: overcast cloud deck at 1600 feet AGL
Weather: no significant weather observed at this time

METAR text: KIND 180736Z 28013KT 10SM OVC014 M01/M03 A2997 RMK AO2 T10111033
Conditions at: KIND (INDIANAPOLIS , IN, US) observed 0736 UTC 18 February 2019
Temperature: -1.1°C (30°F)
Dewpoint: -3.3°C (26°F) [RH = 85%]
Pressure (altimeter): 29.97 inches Hg (1015.0 mb)
Winds: from the W (280 degrees) at 15 MPH (13 knots; 6.7 m/s)
Visibility: 10 or more miles (16+ km)
Ceiling: 1400 feet AGL
Clouds: overcast cloud deck at 1400 feet AGL
Weather: no significant weather observed at this time

METAR text: KIND 180703Z 27014G22KT 10SM BKN015 OVC020 M01/M03 A2996 RMK AO2 T10111033
Conditions at: KIND (INDIANAPOLIS , IN, US) observed 0703 UTC 18 February 2019
Temperature: -1.1°C (30°F)
Dewpoint: -3.3°C (26°F) [RH = 85%]
Pressure (altimeter): 29.96 inches Hg (1014.6 mb)
Winds: from the W (270 degrees) at 16 MPH (14 knots; 7.2 m/s)
gusting to 25 MPH (22 knots; 11.3 m/s)
Visibility: 10 or more miles (16+ km)
Ceiling: 1500 feet AGL
Clouds: broken clouds at 1500 feet AGL
overcast cloud deck at 2000 feet AGL
Weather: no significant weather observed at this time

METAR text: KIND 180654Z 27013KT 10SM OVC013 M01/M03 A2996 RMK AO2 SLP154 T10111028
Conditions at: KIND (INDIANAPOLIS , IN, US) observed 0654 UTC 18 February 2019
Temperature: -1.1°C (30°F)
Dewpoint: -2.8°C (27°F) [RH = 88%]
Pressure (altimeter): 29.96 inches Hg (1014.6 mb)
[Sea-level pressure: 1015.4 mb]
Winds: from the W (270 degrees) at 15 MPH (13 knots; 6.7 m/s)
Visibility: 10 or more miles (16+ km)
Ceiling: 1300 feet AGL
Clouds: overcast cloud deck at 1300 feet AGL
Weather: no significant weather observed at this time

METAR text: KIND 180554Z 27013KT 10SM BKN011 OVC022 M01/M02 A2993 RMK AO2 SLP143 60000 I6001 T10061022 11006 21006 53015
Conditions at: KIND (INDIANAPOLIS , IN, US) observed 0554 UTC 18 February 2019
Temperature: -0.6°C (31°F)
Dewpoint: -2.2°C (28°F) [RH = 89%]
Pressure (altimeter): 29.93 inches Hg (1013.6 mb)
[Sea-level pressure: 1014.3 mb]
Winds: from the W (270 degrees) at 15 MPH (13 knots; 6.7 m/s)
Visibility: 10 or more miles (16+ km)
Ceiling: 1100 feet AGL
Clouds: broken clouds at 1100 feet AGL
overcast cloud deck at 2200 feet AGL
Weather: no significant weather observed at this time

METAR text: KIND 180454Z 27010KT 10SM BKN014 OVC022 M01/M02 A2990 RMK AO2 SLP134 T10061022 410061044
Conditions at: KIND (INDIANAPOLIS , IN, US) observed 0454 UTC 18 February 2019
Temperature: -0.6°C (31°F)
Dewpoint: -2.2°C (28°F) [RH = 89%]
Pressure (altimeter): 29.90 inches Hg (1012.6 mb)
[Sea-level pressure: 1013.4 mb]
Winds: from the W (270 degrees) at 12 MPH (10 knots; 5.1 m/s)
Visibility: 10 or more miles (16+ km)
Ceiling: 1400 feet AGL
Clouds: broken clouds at 1400 feet AGL
overcast cloud deck at 2200 feet AGL
Weather: no significant weather observed at this time

METAR text: KIND 180451Z 28012KT 10SM BKN014 OVC022 M01/M02 A2990 RMK AO2
Conditions at: KIND (INDIANAPOLIS , IN, US) observed 0451 UTC 18 February 2019
Temperature: -1.0°C (30°F)
Dewpoint: -2.0°C (28°F) [RH = 93%]
Pressure (altimeter): 29.90 inches Hg (1012.6 mb)
Winds: from the W (280 degrees) at 14 MPH (12 knots; 6.2 m/s)
Visibility: 10 or more miles (16+ km)
Ceiling: 1400 feet AGL
Clouds: broken clouds at 1400 feet AGL
overcast cloud deck at 2200 feet AGL
Weather: no significant weather observed at this time

METAR text: KIND 180354Z 27009KT 10SM SCT013 OVC018 M01/M02 A2989 RMK AO2 SLP128 T10061022
Conditions at: KIND (INDIANAPOLIS , IN, US) observed 0354 UTC 18 February 2019
Temperature: -0.6°C (31°F)
Dewpoint: -2.2°C (28°F) [RH = 89%]
Pressure (altimeter): 29.89 inches Hg (1012.3 mb)
[Sea-level pressure: 1012.8 mb]
Winds: from the W (270 degrees) at 10 MPH (9 knots; 4.6 m/s)
Visibility: 10 or more miles (16+ km)
Ceiling: 1800 feet AGL
Clouds: scattered clouds at 1300 feet AGL
overcast cloud deck at 1800 feet AGL
Weather: no significant weather observed at this time

METAR text: KIND 180327Z 27009KT 10SM BKN012 OVC018 M01/M02 A2988 RMK AO2 T10061022
Conditions at: KIND (INDIANAPOLIS , IN, US) observed 0327 UTC 18 February 2019
Temperature: -0.6°C (31°F)
Dewpoint: -2.2°C (28°F) [RH = 89%]
Pressure (altimeter): 29.88 inches Hg (1011.9 mb)
Winds: from the W (270 degrees) at 10 MPH (9 knots; 4.6 m/s)
Visibility: 10 or more miles (16+ km)
Ceiling: 1200 feet AGL
Clouds: broken clouds at 1200 feet AGL
overcast cloud deck at 1800 feet AGL
Weather: no significant weather observed at this time

METAR text: KIND 180254Z 28010KT 10SM BKN009 OVC014 M01/M02 A2987 RMK AO2 SLP121 60000 I3001 T10061022 51021
Conditions at: KIND (INDIANAPOLIS , IN, US) observed 0254 UTC 18 February 2019
Temperature: -0.6°C (31°F)
Dewpoint: -2.2°C (28°F) [RH = 89%]
Pressure (altimeter): 29.87 inches Hg (1011.6 mb)
[Sea-level pressure: 1012.1 mb]
Winds: from the W (280 degrees) at 12 MPH (10 knots; 5.1 m/s)
Visibility: 10 or more miles (16+ km)
Ceiling: 900 feet AGL
Clouds: broken clouds at 900 feet AGL
overcast cloud deck at 1400 feet AGL
Weather: no significant weather observed at this time

METAR text: KIND 180154Z 27009KT 8SM OVC009 M01/M02 A2984 RMK AO2 FZDZE24 SLP114 P0000 I1000 T10061017
Conditions at: KIND (INDIANAPOLIS , IN, US) observed 0154 UTC 18 February 2019
Temperature: -0.6°C (31°F)
Dewpoint: -1.7°C (29°F) [RH = 92%]
Pressure (altimeter): 29.84 inches Hg (1010.6 mb)
[Sea-level pressure: 1011.4 mb]
Winds: from the W (270 degrees) at 10 MPH (9 knots; 4.6 m/s)
Visibility: 8 miles (13 km)
Ceiling: 900 feet AGL
Clouds: overcast cloud deck at 900 feet AGL
Weather: no significant weather observed at this time

METAR text: KIND 180124Z 27009KT 7SM BKN008 OVC013 M01/M02 A2984 RMK AO2 FZDZE24 P0000 I1000 T10061017
Conditions at: KIND (INDIANAPOLIS , IN, US) observed 0124 UTC 18 February 2019
Temperature: -0.6°C (31°F)
Dewpoint: -1.7°C (29°F) [RH = 92%]
Pressure (altimeter): 29.84 inches Hg (1010.6 mb)
Winds: from the W (270 degrees) at 10 MPH (9 knots; 4.6 m/s)
Visibility: 7 miles (11 km)
Ceiling: 800 feet AGL
Clouds: broken clouds at 800 feet AGL
overcast cloud deck at 1300 feet AGL
Weather: no significant weather observed at this time

METAR text: KIND 180054Z 26007KT 4SM -FZDZ BR OVC007 M01/M02 A2983 RMK AO2 SLP108 P0000 I1001 T10061017
Conditions at: KIND (INDIANAPOLIS , IN, US) observed 0054 UTC 18 February 2019
Temperature: -0.6°C (31°F)
Dewpoint: -1.7°C (29°F) [RH = 92%]
Pressure (altimeter): 29.83 inches Hg (1010.2 mb)
[Sea-level pressure: 1010.8 mb]
Winds: from the W (260 degrees) at 8 MPH (7 knots; 3.6 m/s)
Visibility: 4 miles ( 6 km)
Ceiling: 700 feet AGL
Clouds: overcast cloud deck at 700 feet AGL
Weather: -FZDZ BR  (light freezing drizzle, mist)

METAR text: KIND 172354Z 26006KT 5SM -FZDZ BR OVC007 M01/M02 A2980 RMK AO2 SLP099 P0000 60000 I1000 I6000 T10061017 11006 21017 51029
Conditions at: KIND (INDIANAPOLIS , IN, US) observed 2354 UTC 17 February 2019
Temperature: -0.6°C (31°F)
Dewpoint: -1.7°C (29°F) [RH = 92%]
Pressure (altimeter): 29.80 inches Hg (1009.2 mb)
[Sea-level pressure: 1009.9 mb]
Winds: from the W (260 degrees) at 7 MPH (6 knots; 3.1 m/s)
Visibility: 5 miles ( 8 km)
Ceiling: 700 feet AGL
Clouds: overcast cloud deck at 700 feet AGL
Weather: -FZDZ BR  (light freezing drizzle, mist)

METAR text: KIND 172254Z 28006KT 5SM -FZDZ BR OVC006 M01/M02 A2978 RMK AO2 FZDZB52 SLP090 P0000 I1000 T10111022
Conditions at: KIND (INDIANAPOLIS , IN, US) observed 2254 UTC 17 February 2019
Temperature: -1.1°C (30°F)
Dewpoint: -2.2°C (28°F) [RH = 92%]
Pressure (altimeter): 29.78 inches Hg (1008.5 mb)
[Sea-level pressure: 1009.0 mb]
Winds: from the W (280 degrees) at 7 MPH (6 knots; 3.1 m/s)
Visibility: 5 miles ( 8 km)
Ceiling: 600 feet AGL
Clouds: overcast cloud deck at 600 feet AGL
Weather: -FZDZ BR  (light freezing drizzle, mist)

METAR text: KIND 172154Z 22004KT 5SM BR OVC006 M01/M02 A2976 RMK AO2 FZDZE25 SLP084 P0000 I1000 T10111017
Conditions at: KIND (INDIANAPOLIS , IN, US) observed 2154 UTC 17 February 2019
Temperature: -1.1°C (30°F)
Dewpoint: -1.7°C (29°F) [RH = 96%]
Pressure (altimeter): 29.76 inches Hg (1007.9 mb)
[Sea-level pressure: 1008.4 mb]
Winds: from the SW (220 degrees) at 5 MPH (4 knots; 2.1 m/s)
Visibility: 5 miles ( 8 km)
Ceiling: 600 feet AGL
Clouds: overcast cloud deck at 600 feet AGL
Weather: BR  (mist)

METAR text: KIND 172125Z 14008KT 6SM BR OVC006 M01/M02 A2975 RMK AO2 FZDZE25 PRESRR P0000 I1000 T10111022
Conditions at: KIND (INDIANAPOLIS , IN, US) observed 2125 UTC 17 February 2019
Temperature: -1.1°C (30°F)
Dewpoint: -2.2°C (28°F) [RH = 92%]
Pressure (altimeter): 29.75 inches Hg (1007.5 mb)
Winds: from the SE (140 degrees) at 9 MPH (8 knots; 4.1 m/s)
Visibility: 6 miles (10 km)
Ceiling: 600 feet AGL
Clouds: overcast cloud deck at 600 feet AGL
Weather: BR  (mist)

METAR text: KIND 172054Z 11008KT 1 3/4SM -FZDZ BR OVC005 M01/M02 A2971 RMK AO2 SFC VIS 3 SLP070 P0000 60000 I1000 I3000 T10111022 56027
Conditions at: KIND (INDIANAPOLIS , IN, US) observed 2054 UTC 17 February 2019
Temperature: -1.1°C (30°F)
Dewpoint: -2.2°C (28°F) [RH = 92%]
Pressure (altimeter): 29.71 inches Hg (1006.2 mb)
[Sea-level pressure: 1007.0 mb]
Winds: from the ESE (110 degrees) at 9 MPH (8 knots; 4.1 m/s)
Visibility: 1.75 miles (2.82 km)
Ceiling: 500 feet AGL
Clouds: overcast cloud deck at 500 feet AGL
Weather: -FZDZ BR  (light freezing drizzle, mist)

METAR text: KIND 171954Z 08003KT 1 3/4SM -FZDZ BR OVC007 M01/M02 A2974 RMK AO2 SFC VIS 2 SLP078 P0000 I1000 T10111022
Conditions at: KIND (INDIANAPOLIS , IN, US) observed 1954 UTC 17 February 2019
Temperature: -1.1°C (30°F)
Dewpoint: -2.2°C (28°F) [RH = 92%]
Pressure (altimeter): 29.74 inches Hg (1007.2 mb)
[Sea-level pressure: 1007.8 mb]
Winds: from the E (80 degrees) at 3 MPH (3 knots; 1.5 m/s)
Visibility: 1.75 miles (2.82 km)
Ceiling: 700 feet AGL
Clouds: overcast cloud deck at 700 feet AGL
Weather: -FZDZ BR  (light freezing drizzle, mist)

METAR text: KIND 171854Z 05007KT 1 3/4SM -FZDZ BR BKN006 OVC013 M02/M03 A2975 RMK AO2 SFC VIS 2 FZRAE00FZDZB00 SLP084 P0000 I1000 T10171028
Conditions at: KIND (INDIANAPOLIS , IN, US) observed 1854 UTC 17 February 2019
Temperature: -1.7°C (29°F)
Dewpoint: -2.8°C (27°F) [RH = 92%]
Pressure (altimeter): 29.75 inches Hg (1007.5 mb)
[Sea-level pressure: 1008.4 mb]
Winds: from the NE (50 degrees) at 8 MPH (7 knots; 3.6 m/s)
Visibility: 1.75 miles (2.82 km)
Ceiling: 600 feet AGL
Clouds: broken clouds at 600 feet AGL
overcast cloud deck at 1300 feet AGL
Weather: -FZDZ BR  (light freezing drizzle, mist)

METAR text: KIND 171806Z 08004KT 1 3/4SM -FZDZ BR OVC006 M02/M03 A2978 RMK AO2 FZRAE00FZDZB00 P0000 I1000 T10171028
Conditions at: KIND (INDIANAPOLIS , IN, US) observed 1806 UTC 17 February 2019
Temperature: -1.7°C (29°F)
Dewpoint: -2.8°C (27°F) [RH = 92%]
Pressure (altimeter): 29.78 inches Hg (1008.5 mb)
Winds: from the E (80 degrees) at 5 MPH (4 knots; 2.1 m/s)
Visibility: 1.75 miles (2.82 km)
Ceiling: 600 feet AGL
Clouds: overcast cloud deck at 600 feet AGL
Weather: -FZDZ BR  (light freezing drizzle, mist)

METAR text: KIND 171754Z 09004KT 1 3/4SM -FZRA BR BKN007 OVC012 M02/M03 A2980 RMK AO2 UPB00E06FZRAB06 SLP099 P0001 60002 I1002 I6002 T10171028 11017 21028 51007
Conditions at: KIND (INDIANAPOLIS , IN, US) observed 1754 UTC 17 February 2019
Temperature: -1.7°C (29°F)
Dewpoint: -2.8°C (27°F) [RH = 92%]
Pressure (altimeter): 29.80 inches Hg (1009.2 mb)
[Sea-level pressure: 1009.9 mb]
Winds: from the E (90 degrees) at 5 MPH (4 knots; 2.1 m/s)
Visibility: 1.75 miles (2.82 km)
Ceiling: 700 feet AGL
Clouds: broken clouds at 700 feet AGL
overcast cloud deck at 1200 feet AGL
Weather: -FZRA BR  (light freezing rain, mist)

METAR text: KIND 171752Z 07005KT 1 3/4SM -FZRA BR BKN007 OVC012 M02/M03 A2979 RMK AO2 UPB00E06FZRAB06 P0001 I1002
Conditions at: KIND (INDIANAPOLIS , IN, US) observed 1752 UTC 17 February 2019
Temperature: -2.0°C (28°F)
Dewpoint: -3.0°C (27°F) [RH = 93%]
Pressure (altimeter): 29.79 inches Hg (1008.9 mb)
Winds: from the ENE (70 degrees) at 6 MPH (5 knots; 2.6 m/s)
Visibility: 1.75 miles (2.82 km)
Ceiling: 700 feet AGL
Clouds: broken clouds at 700 feet AGL
overcast cloud deck at 1200 feet AGL
Weather: -FZRA BR  (light freezing rain, mist)

METAR text: KIND 171733Z 08005KT 1 1/2SM -FZRA BR FEW006 OVC013 M02/M03 A2980 RMK AO2 TWR VIS 1 3/4 UPB00E06FZRAB06 P0001 I1002 T10171033
Conditions at: KIND (INDIANAPOLIS , IN, US) observed 1733 UTC 17 February 2019
Temperature: -1.7°C (29°F)
Dewpoint: -3.3°C (26°F) [RH = 89%]
Pressure (altimeter): 29.80 inches Hg (1009.2 mb)
Winds: from the E (80 degrees) at 6 MPH (5 knots; 2.6 m/s)
Visibility: 1.50 miles (2.41 km)
Ceiling: 1300 feet AGL
Clouds: few clouds at 600 feet AGL
overcast cloud deck at 1300 feet AGL
Weather: -FZRA BR  (light freezing rain, mist)

Forecast for: KIND (INDIANAPOLIS , IN, US)
Text: KIND 190227Z 1902/2006 32005KT P6SM BKN035
Forecast period: 0200 to 0300 UTC 19 February 2019
Forecast type: FROM: standard forecast or significant change
Winds: from the NW (320 degrees) at 6 MPH (5 knots; 2.6 m/s)
Visibility: 6 or more miles 10+ km)
Ceiling: 3500 feet AGL
Clouds: broken clouds at 3500 feet AGL
Weather: no significant weather forecast for this period
Text: FM190300 VRB04KT P6SM SCT060
Forecast period: 0300 to 0500 UTC 19 February 2019
Forecast type: FROM: standard forecast or significant change
Winds: variable direction winds at 5 MPH (4 knots; 2.1 m/s)
Visibility: 6 or more miles 10+ km)
Ceiling: at least 12,000 feet AGL
Clouds: scattered clouds at 6000 feet AGL
Weather: no significant weather forecast for this period
Text: FM190500 VRB04KT P6SM SCT130
Forecast period: 0500 to 2200 UTC 19 February 2019
Forecast type: FROM: standard forecast or significant change
Winds: variable direction winds at 5 MPH (4 knots; 2.1 m/s)
Visibility: 6 or more miles 10+ km)
Ceiling: at least 12,000 feet AGL
Clouds: scattered clouds at 13000 feet AGL
Weather: no significant weather forecast for this period
Text: FM192200 08006KT P6SM BKN180
Forecast period: 2200 UTC 19 February 2019 to 0600 UTC 20 February 2019
Forecast type: FROM: standard forecast or significant change
Winds: from the E (80 degrees) at 7 MPH (6 knots; 3.1 m/s)
Visibility: 6 or more miles 10+ km)
Ceiling: 18000 feet AGL
Clouds: broken clouds at 18000 feet AGL
Weather: no significant weather forecast for this period